Macon, Arkansas
Current Conditions -  °F | °C
As of 9:58 AM on Thursday 30 Oct 2014 (Local Time) from KLRF Reporting Station
Clear Clear  
Wind Chill: 55°   Ceiling: Unl
Heat Index: 55°   Visibility: 10mi
Dew Point: 44°   Wind: 2mph
Humidity: 67%   Direction: NA
Pressure: 30.17"   Gusts: NA
Location:  34.9092°N, 92.1561°W
Report Text: KLRF 301458Z AUTO VRB02KT 10SM CLR 13/07 A3017 RMK AO2 SLP220 T01250066 53000
Loading
Personal Weather Stations






























Interactive Weather Map
Tropical Storm Tracking
New forecast layout! Learn more

10-Day Weather Forecast

Advertisements
Track Severe Weather on mobile